Time;durP1;ratioP1;P1;durP2;ratioP2;P2;SDS_P1;SDS_P2;PMS_P1;PMS_P2;Temp;Humidity;BMP_temperature;BMP_pressure;BME280_temperature;BME280_humidity;BME280_pressure;Samples;Min_cycle;Max_cycle;Signal;HPM_P1;HPM_P2
2021/09/15 00:01:28;;;;;;;10.63;6.10;;;17.50;99.90;;;;;;4999753;28;20261;-82
2021/09/15 00:03:53;;;;;;;10.13;5.67;;;17.50;99.90;;;;;;5000679;28;20176;-83
2021/09/15 00:06:19;;;;;;;8.90;6.67;;;17.50;99.90;;;;;;5001074;28;20172;-82
2021/09/15 00:08:45;;;;;;;8.67;5.37;;;17.50;99.90;;;;;;4999418;28;20223;-83
2021/09/15 00:11:12;;;;;;;8.00;6.03;;;;;;;;;;5001347;28;20609;-83
2021/09/15 00:13:39;;;;;;;10.93;9.40;;;17.50;99.90;;;;;;5001044;28;20183;-83
2021/09/15 00:16:05;;;;;;;9.73;8.20;;;17.50;99.90;;;;;;5000142;28;20673;-83
2021/09/15 00:18:30;;;;;;;10.90;7.97;;;17.40;99.90;;;;;;5005429;28;20180;-83
2021/09/15 00:20:56;;;;;;;6.80;6.10;;;17.40;99.90;;;;;;5005614;28;20204;-83
2021/09/15 00:23:22;;;;;;;8.23;6.13;;;;;;;;;;5004115;28;20172;-83
2021/09/15 00:25:48;;;;;;;7.27;6.00;;;17.30;99.90;;;;;;5003014;28;20183;-83
2021/09/15 00:28:14;;;;;;;8.80;6.67;;;17.20;99.90;;;;;;4998716;28;20182;-83
2021/09/15 00:30:40;;;;;;;7.03;6.30;;;17.20;99.90;;;;;;5000405;28;20217;-83
2021/09/15 00:33:05;;;;;;;7.70;5.97;;;17.10;99.90;;;;;;5001289;28;20183;-83
2021/09/15 00:35:31;;;;;;;8.27;6.17;;;17.10;99.90;;;;;;5000154;28;20282;-83
2021/09/15 00:37:57;;;;;;;9.00;6.27;;;;;;;;;;4999301;28;20237;-83
2021/09/15 00:40:23;;;;;;;9.07;6.83;;;17.10;99.90;;;;;;4999003;28;20180;-83
2021/09/15 00:42:49;;;;;;;10.10;6.83;;;;;;;;;;5000101;28;20178;-83
2021/09/15 00:45:15;;;;;;;9.97;7.27;;;17.10;99.90;;;;;;5000733;28;20186;-83
2021/09/15 00:47:40;;;;;;;10.67;7.23;;;17.10;99.90;;;;;;4999024;28;20183;-83
2021/09/15 00:50:07;;;;;;;7.77;6.63;;;17.10;99.90;;;;;;4999175;28;20179;-83
2021/09/15 00:52:32;;;;;;;8.53;6.80;;;17.10;99.90;;;;;;4998679;28;20286;-83
2021/09/15 00:54:58;;;;;;;8.43;5.63;;;17.10;99.90;;;;;;4997993;28;20207;-83
2021/09/15 00:57:24;;;;;;;9.43;6.23;;;17.10;99.90;;;;;;4997512;28;20253;-83
2021/09/15 00:59:50;;;;;;;8.47;6.30;;;17.10;99.90;;;;;;5000458;28;20179;-83
2021/09/15 01:02:20;;;;;;;7.80;6.37;;;17.10;99.90;;;;;;5003521;28;20195;-82
2021/09/15 01:04:47;;;;;;;7.97;5.77;;;17.10;99.90;;;;;;5001769;28;20187;-83
2021/09/15 01:07:13;;;;;;;6.13;5.20;;;17.10;99.90;;;;;;5003423;28;20185;-83
2021/09/15 01:09:40;;;;;;;5.67;5.03;;;17.10;99.90;;;;;;5002678;28;20183;-83
2021/09/15 01:12:10;;;;;;;9.30;6.30;;;17.10;99.90;;;;;;5002969;28;20215;-83
2021/09/15 01:14:39;;;;;;;6.33;5.67;;;17.10;99.90;;;;;;5003337;28;20156;-83
2021/09/15 01:17:05;;;;;;;6.67;5.60;;;17.10;99.90;;;;;;5001824;28;20280;-83
2021/09/15 01:19:30;;;;;;;6.23;5.47;;;17.10;99.90;;;;;;5002370;28;20630;-83
2021/09/15 01:22:00;;;;;;;7.93;5.43;;;17.00;99.90;;;;;;5002584;28;20215;-83
2021/09/15 01:24:29;;;;;;;10.63;5.90;;;17.00;99.90;;;;;;5001565;28;20203;-83
2021/09/15 01:26:55;;;;;;;7.80;6.00;;;17.00;99.90;;;;;;5002751;28;20191;-83
2021/09/15 01:29:28;;;;;;;9.93;5.83;;;16.90;99.90;;;;;;5002233;28;20233;-83
2021/09/15 01:32:14;;;;;;;6.87;5.60;;;16.90;99.90;;;;;;5003272;28;20200;-85
2021/09/15 01:34:48;;;;;;;7.73;5.30;;;16.90;99.90;;;;;;5002692;28;20536;-83
2021/09/15 01:37:14;;;;;;;7.70;5.53;;;16.80;99.90;;;;;;5002084;28;20692;-83
2021/09/15 01:39:41;;;;;;;9.53;5.90;;;16.80;99.90;;;;;;5003415;28;20674;-83
2021/09/15 01:42:09;;;;;;;9.03;6.00;;;16.70;99.90;;;;;;5002799;28;20203;-82
2021/09/15 01:44:43;;;;;;;9.60;6.50;;;16.70;99.90;;;;;;5003640;28;20274;-83
2021/09/15 01:47:10;;;;;;;7.83;6.47;;;16.70;99.90;;;;;;5002808;28;20199;-83
2021/09/15 01:49:38;;;;;;;7.77;6.07;;;16.60;99.90;;;;;;5004420;28;20184;-83
2021/09/15 01:52:05;;;;;;;9.63;5.83;;;16.60;99.90;;;;;;5004568;28;20230;-83
2021/09/15 01:54:31;;;;;;;8.00;5.60;;;16.60;99.90;;;;;;5003243;28;20180;-83
2021/09/15 01:56:57;;;;;;;7.40;5.83;;;16.60;99.90;;;;;;5004649;28;20207;-83
2021/09/15 01:59:23;;;;;;;9.73;5.77;;;16.60;99.90;;;;;;5013989;28;20220;-83
2021/09/15 02:01:49;;;;;;;7.87;5.73;;;16.60;99.90;;;;;;5010136;28;20195;-83
2021/09/15 02:04:14;;;;;;;7.20;6.23;;;16.60;99.90;;;;;;5014010;28;20247;-83
2021/09/15 02:06:40;;;;;;;7.37;6.10;;;16.60;99.90;;;;;;5002694;28;20210;-83
2021/09/15 02:09:06;;;;;;;6.87;6.17;;;16.60;99.90;;;;;;5000534;28;20207;-83
2021/09/15 02:11:34;;;;;;;10.70;6.53;;;16.50;99.90;;;;;;4999343;28;20226;-82
2021/09/15 02:14:00;;;;;;;8.90;6.60;;;16.50;99.90;;;;;;5000701;28;20642;-83
2021/09/15 02:16:25;;;;;;;7.87;6.43;;;16.40;99.90;;;;;;5001855;28;20214;-83
2021/09/15 02:18:51;;;;;;;11.90;6.70;;;;;;;;;;5001461;28;20183;-83
2021/09/15 02:21:18;;;;;;;9.57;6.80;;;16.30;99.90;;;;;;5001593;28;20203;-83
2021/09/15 02:23:43;;;;;;;9.63;6.57;;;16.20;99.90;;;;;;5002158;28;20274;-83
2021/09/15 02:26:09;;;;;;;8.70;6.70;;;16.20;99.90;;;;;;5002359;28;20656;-83
2021/09/15 02:28:35;;;;;;;11.27;7.10;;;16.10;99.90;;;;;;5002295;28;20222;-83
2021/09/15 02:31:01;;;;;;;9.90;7.03;;;;;;;;;;5003599;28;20258;-83
2021/09/15 02:33:26;;;;;;;9.10;6.80;;;16.10;99.90;;;;;;5004036;28;20183;-83
2021/09/15 02:35:52;;;;;;;8.17;6.53;;;16.10;99.90;;;;;;5008429;28;20201;-83
2021/09/15 02:38:18;;;;;;;9.37;6.83;;;;;;;;;;5004252;28;20207;-83
2021/09/15 02:40:44;;;;;;;7.30;6.00;;;16.10;99.90;;;;;;5001367;28;20254;-83
2021/09/15 02:43:09;;;;;;;8.00;6.17;;;16.10;99.90;;;;;;5002405;28;20613;-83
2021/09/15 02:45:35;;;;;;;8.30;6.63;;;16.10;99.90;;;;;;5002129;28;20203;-83
2021/09/15 02:48:01;;;;;;;7.97;6.40;;;16.10;99.90;;;;;;5000412;28;20251;-83
2021/09/15 02:50:26;;;;;;;9.97;6.47;;;16.00;99.90;;;;;;5000288;28;20557;-83
2021/09/15 02:52:52;;;;;;;8.60;6.57;;;16.00;99.90;;;;;;5001266;28;20540;-83
2021/09/15 02:55:18;;;;;;;7.20;6.50;;;16.10;99.90;;;;;;5001166;28;20669;-83
2021/09/15 02:57:43;;;;;;;9.30;6.00;;;16.00;99.90;;;;;;5001768;28;20274;-83
2021/09/15 03:00:10;;;;;;;7.57;6.77;;;16.00;99.90;;;;;;4999850;28;20224;-83
2021/09/15 03:02:35;;;;;;;10.13;6.40;;;15.90;99.90;;;;;;5001065;28;20246;-83
2021/09/15 03:05:01;;;;;;;9.70;5.77;;;;;;;;;;5000177;28;20180;-83
2021/09/15 03:07:27;;;;;;;7.43;6.13;;;15.90;99.90;;;;;;5001832;28;20262;-83
2021/09/15 03:09:53;;;;;;;9.90;6.43;;;15.90;99.90;;;;;;5000661;28;20219;-82
2021/09/15 03:12:18;;;;;;;7.47;6.30;;;15.90;99.90;;;;;;5000373;28;20623;-82
2021/09/15 03:14:44;;;;;;;7.63;6.00;;;15.90;99.90;;;;;;5000375;28;20191;-83
2021/09/15 03:17:10;;;;;;;7.27;6.47;;;15.90;99.90;;;;;;5000332;28;20235;-83
2021/09/15 03:19:35;;;;;;;7.60;6.80;;;15.90;99.90;;;;;;5001741;28;20175;-83
2021/09/15 03:22:01;;;;;;;6.80;6.10;;;15.90;99.90;;;;;;5000791;28;20227;-83
2021/09/15 03:24:27;;;;;;;7.83;6.40;;;15.90;99.90;;;;;;5006689;28;20181;-83
2021/09/15 03:26:52;;;;;;;6.87;6.23;;;15.80;99.90;;;;;;5009261;28;20207;-82
2021/09/15 03:29:18;;;;;;;6.97;6.27;;;15.80;99.90;;;;;;5005533;28;20180;-83
2021/09/15 03:31:44;;;;;;;7.73;6.20;;;15.70;99.90;;;;;;5007119;28;20213;-82
2021/09/15 03:34:09;;;;;;;6.60;5.83;;;15.70;99.90;;;;;;5000628;28;20183;-82
2021/09/15 03:36:35;;;;;;;6.60;5.90;;;15.70;99.90;;;;;;5001700;28;20207;-83
2021/09/15 03:39:02;;;;;;;8.13;6.23;;;15.70;99.90;;;;;;5001207;28;20531;-82
2021/09/15 03:41:27;;;;;;;7.17;6.47;;;15.70;99.90;;;;;;4999871;28;20191;-83
2021/09/15 03:43:53;;;;;;;8.63;6.73;;;15.60;99.90;;;;;;4999874;28;20268;-82
2021/09/15 03:46:25;;;;;;;8.80;6.70;;;15.60;99.90;;;;;;5001645;28;20172;-84
2021/09/15 03:48:50;;;;;;;8.23;6.20;;;15.70;99.90;;;;;;5002336;28;20176;-82
2021/09/15 03:51:16;;;;;;;9.17;6.47;;;15.70;99.90;;;;;;5000838;28;20199;-83
2021/09/15 03:53:41;;;;;;;7.00;6.10;;;15.70;99.90;;;;;;5001349;28;20175;-82
2021/09/15 03:56:07;;;;;;;10.90;6.30;;;15.70;99.90;;;;;;5001611;28;20174;-82
2021/09/15 03:58:36;;;;;;;8.40;6.73;;;15.70;99.90;;;;;;5002253;28;20210;-83
2021/09/15 04:01:02;;;;;;;8.50;6.07;;;15.70;99.90;;;;;;5000943;28;20199;-82
2021/09/15 04:03:27;;;;;;;9.20;6.13;;;15.70;99.90;;;;;;5002110;28;20636;-83
2021/09/15 04:05:53;;;;;;;7.90;6.33;;;15.70;99.90;;;;;;5002634;28;20183;-84
2021/09/15 04:08:19;;;;;;;7.43;6.30;;;15.70;99.90;;;;;;5003562;28;20203;-84
2021/09/15 04:10:44;;;;;;;10.63;6.73;;;15.70;99.90;;;;;;5001523;28;20200;-82
2021/09/15 04:13:10;;;;;;;6.67;6.07;;;15.60;99.90;;;;;;5001241;28;20211;-82
2021/09/15 04:15:39;;;;;;;11.60;5.90;;;15.70;99.90;;;;;;5000748;28;20184;-82
2021/09/15 04:18:04;;;;;;;6.87;6.07;;;15.70;99.90;;;;;;5001320;28;20210;-82
2021/09/15 04:20:30;;;;;;;6.70;5.90;;;15.70;99.90;;;;;;5000126;28;20175;-82
2021/09/15 04:22:56;;;;;;;7.37;6.13;;;15.70;99.90;;;;;;5001006;28;20174;-82
2021/09/15 04:33:34;;;;;;;8.03;6.27;;;15.70;99.90;;;;;;5007834;28;20167;-82
2021/09/15 04:35:59;;;;;;;8.37;5.97;;;15.70;99.90;;;;;;4999644;28;20224;-82
2021/09/15 04:38:25;;;;;;;8.83;5.87;;;15.70;99.90;;;;;;5000183;28;20605;-82
2021/09/15 04:40:51;;;;;;;7.37;6.03;;;15.70;99.90;;;;;;5000764;28;20256;-82
2021/09/15 04:43:16;;;;;;;9.10;5.97;;;15.70;99.90;;;;;;4999821;28;20183;-82
2021/09/15 04:45:42;;;;;;;6.77;5.50;;;15.80;99.90;;;;;;4999595;28;20182;-82
2021/09/15 04:48:08;;;;;;;6.87;6.13;;;15.70;99.90;;;;;;5001107;28;20266;-82
2021/09/15 04:50:33;;;;;;;8.67;5.57;;;15.80;99.90;;;;;;5002616;28;20290;-83
2021/09/15 04:52:59;;;;;;;7.53;5.87;;;15.80;99.90;;;;;;5006168;28;20175;-82
2021/09/15 04:55:25;;;;;;;6.77;6.07;;;15.80;99.90;;;;;;5006059;28;20196;-82
2021/09/15 04:57:51;;;;;;;6.60;5.70;;;15.90;99.90;;;;;;4999029;28;20203;-82
2021/09/15 05:00:16;;;;;;;8.10;5.80;;;15.90;99.90;;;;;;4997678;28;20634;-82
2021/09/15 05:02:42;;;;;;;7.30;5.93;;;15.90;99.90;;;;;;4999499;28;20168;-82
2021/09/15 05:05:08;;;;;;;7.03;5.60;;;15.90;99.90;;;;;;4999615;28;20212;-82
2021/09/15 05:07:34;;;;;;;7.03;5.60;;;15.90;99.90;;;;;;4999264;28;20190;-82
2021/09/15 05:09:59;;;;;;;6.23;5.50;;;15.90;99.90;;;;;;4999520;28;20184;-82
2021/09/15 05:12:25;;;;;;;6.33;5.70;;;15.90;99.90;;;;;;4999947;28;20223;-82
2021/09/15 05:14:51;;;;;;;9.00;5.30;;;15.90;99.90;;;;;;4998985;28;20207;-81
2021/09/15 05:17:16;;;;;;;7.53;5.67;;;16.00;99.90;;;;;;5001446;28;20317;-82
2021/09/15 05:19:42;;;;;;;6.53;5.43;;;16.00;99.90;;;;;;5001848;28;20214;-83
2021/09/15 05:22:08;;;;;;;6.53;5.53;;;16.10;99.90;;;;;;5004494;28;20196;-82
2021/09/15 05:24:34;;;;;;;7.37;6.37;;;16.10;99.90;;;;;;4998714;28;20175;-81
2021/09/15 05:26:59;;;;;;;8.30;5.50;;;16.10;99.90;;;;;;4999983;28;20172;-82
2021/09/15 05:29:25;;;;;;;7.10;5.37;;;16.10;99.90;;;;;;5000619;28;20235;-84
2021/09/15 05:31:50;;;;;;;5.60;5.07;;;16.20;99.90;;;;;;4999708;28;20195;-82
2021/09/15 05:34:16;;;;;;;7.00;5.50;;;16.20;99.90;;;;;;4999065;28;20179;-82
2021/09/15 05:36:42;;;;;;;9.37;5.60;;;16.20;99.90;;;;;;4998769;28;20222;-82
2021/09/15 05:39:07;;;;;;;8.87;5.70;;;16.20;99.90;;;;;;4996767;28;20644;-82
2021/09/15 05:41:33;;;;;;;7.07;6.37;;;16.20;99.90;;;;;;4997517;28;20191;-82
2021/09/15 05:43:59;;;;;;;7.77;5.70;;;16.20;99.90;;;;;;4998229;28;20265;-83
2021/09/15 05:46:24;;;;;;;9.47;6.17;;;16.30;99.90;;;;;;5000549;28;20196;-83
2021/09/15 05:48:50;;;;;;;9.23;5.30;;;16.30;99.90;;;;;;5004061;28;20203;-84
2021/09/15 05:51:15;;;;;;;6.97;5.37;;;16.30;99.90;;;;;;5002084;28;20199;-83
2021/09/15 05:53:41;;;;;;;6.90;6.20;;;16.40;99.90;;;;;;5005281;28;20188;-83
2021/09/15 05:56:07;;;;;;;7.63;6.20;;;16.40;99.90;;;;;;5004607;28;20184;-83
2021/09/15 05:58:32;;;;;;;7.00;5.63;;;16.50;99.90;;;;;;5004339;28;20214;-83
2021/09/15 06:00:58;;;;;;;7.00;5.60;;;16.50;99.90;;;;;;5006077;28;20199;-82
2021/09/15 06:03:24;;;;;;;7.20;5.70;;;16.50;99.90;;;;;;5005452;28;20227;-83
2021/09/15 06:05:49;;;;;;;8.43;5.80;;;16.60;99.90;;;;;;5007354;28;20186;-83
2021/09/15 06:08:16;;;;;;;9.87;5.90;;;16.60;99.90;;;;;;5009987;28;20191;-82
2021/09/15 06:10:41;;;;;;;7.73;5.73;;;16.60;99.90;;;;;;5008849;28;20206;-82
2021/09/15 06:13:07;;;;;;;8.80;5.97;;;16.70;99.90;;;;;;5007206;28;20163;-82
2021/09/15 06:15:33;;;;;;;8.30;5.40;;;16.70;99.90;;;;;;5006676;28;20191;-82
2021/09/15 06:17:58;;;;;;;10.30;6.40;;;16.80;99.90;;;;;;5001202;28;20286;-82
2021/09/15 06:20:24;;;;;;;6.50;5.87;;;16.80;99.90;;;;;;5001602;28;20672;-82
2021/09/15 06:22:50;;;;;;;9.73;6.40;;;16.80;99.90;;;;;;5002108;28;20160;-82
2021/09/15 06:25:15;;;;;;;15.63;6.50;;;16.80;99.90;;;;;;5002164;28;20172;-82
2021/09/15 06:27:42;;;;;;;7.90;5.93;;;16.80;99.90;;;;;;5001320;28;20183;-82
2021/09/15 06:30:09;;;;;;;8.13;5.97;;;16.90;99.90;;;;;;5000521;28;20180;-82
2021/09/15 06:32:36;;;;;;;7.57;5.40;;;17.00;99.90;;;;;;5000837;28;20200;-82
2021/09/15 06:35:01;;;;;;;5.93;5.23;;;17.10;99.90;;;;;;5000961;28;20228;-82
2021/09/15 06:37:27;;;;;;;7.57;6.23;;;17.20;99.90;;;;;;5000914;28;20209;-82
2021/09/15 06:39:53;;;;;;;6.53;5.93;;;17.30;99.90;;;;;;5003209;28;20172;-82
2021/09/15 06:42:19;;;;;;;5.70;5.00;;;17.30;99.90;;;;;;5003112;28;20220;-82
2021/09/15 06:44:45;;;;;;;7.20;5.50;;;17.30;99.90;;;;;;5001577;28;20180;-82
2021/09/15 06:47:10;;;;;;;7.63;5.30;;;17.30;99.90;;;;;;5001177;28;20207;-82
2021/09/15 06:49:36;;;;;;;7.53;5.53;;;17.30;99.90;;;;;;5000913;28;20314;-82
2021/09/15 06:52:03;;;;;;;7.60;5.83;;;17.30;99.90;;;;;;5001497;28;20242;-82
2021/09/15 06:54:28;;;;;;;9.10;5.53;;;17.30;99.90;;;;;;5000089;28;20181;-82
2021/09/15 06:56:54;;;;;;;7.70;5.40;;;17.30;99.90;;;;;;5001318;28;20208;-82
2021/09/15 06:59:20;;;;;;;9.57;6.83;;;17.40;99.90;;;;;;5000361;28;20188;-82
2021/09/15 07:01:45;;;;;;;11.90;7.10;;;17.50;99.90;;;;;;5002479;28;20594;-82
2021/09/15 07:04:11;;;;;;;9.63;6.17;;;17.60;99.90;;;;;;5004608;28;20169;-82
2021/09/15 07:06:37;;;;;;;10.83;5.57;;;17.70;99.90;;;;;;5006694;28;20183;-82
2021/09/15 07:09:03;;;;;;;10.50;6.43;;;17.90;99.90;;;;;;5008106;28;20189;-83
2021/09/15 07:11:28;;;;;;;9.37;6.47;;;17.90;99.90;;;;;;5000418;28;20345;-82
2021/09/15 07:13:54;;;;;;;7.30;6.13;;;18.00;99.90;;;;;;5000391;28;20185;-82
2021/09/15 07:16:20;;;;;;;7.57;6.30;;;18.00;99.90;;;;;;5001527;28;20251;-82
2021/09/15 07:18:45;;;;;;;9.40;6.73;;;18.10;99.90;;;;;;5000186;28;20298;-82
2021/09/15 07:21:13;;;;;;;12.00;7.43;;;18.20;99.90;;;;;;5000179;28;20201;-82
2021/09/15 07:23:39;;;;;;;10.53;6.67;;;18.20;99.90;;;;;;5001468;28;20170;-82
2021/09/15 07:26:05;;;;;;;16.03;6.83;;;18.30;99.90;;;;;;5000629;28;20183;-82
2021/09/15 07:28:31;;;;;;;9.33;6.33;;;18.40;99.90;;;;;;5001596;28;20206;-83
2021/09/15 07:30:57;;;;;;;6.37;5.17;;;18.60;99.90;;;;;;5002123;28;20280;-82
2021/09/15 07:33:23;;;;;;;17.37;8.00;;;18.80;99.90;;;;;;5002252;28;20182;-82
2021/09/15 07:35:48;;;;;;;15.93;7.80;;;19.00;99.90;;;;;;5004570;28;20204;-83
2021/09/15 07:38:14;;;;;;;9.17;5.80;;;19.30;99.90;;;;;;5001742;28;20218;-82
2021/09/15 07:40:40;;;;;;;8.77;5.73;;;19.50;99.90;;;;;;4999939;28;20289;-82
2021/09/15 07:43:06;;;;;;;10.07;5.43;;;19.70;99.90;;;;;;5000537;28;20180;-83
2021/09/15 07:45:31;;;;;;;9.17;5.77;;;19.80;99.90;;;;;;5000913;28;20199;-83
2021/09/15 07:47:57;;;;;;;7.40;5.17;;;19.90;99.90;;;;;;5000890;28;20183;-82
2021/09/15 07:50:23;;;;;;;7.43;4.97;;;20.00;99.90;;;;;;5001720;28;20653;-83
2021/09/15 07:52:49;;;;;;;6.13;5.20;;;20.10;99.90;;;;;;5002333;28;20232;-83
2021/09/15 07:55:15;;;;;;;6.93;4.87;;;20.20;99.90;;;;;;5000823;28;20641;-82
2021/09/15 07:57:42;;;;;;;5.83;5.20;;;20.40;99.90;;;;;;5003513;28;20656;-83
2021/09/15 08:00:10;;;;;;;9.80;5.83;;;20.50;99.90;;;;;;5003527;28;20186;-83
2021/09/15 08:02:35;;;;;;;10.90;5.30;;;20.50;99.90;;;;;;5003041;28;20278;-83
2021/09/15 08:05:01;;;;;;;12.70;5.30;;;20.50;99.90;;;;;;5005019;28;20183;-85
2021/09/15 08:07:27;;;;;;;8.93;5.47;;;20.50;99.90;;;;;;5006635;28;20183;-84
2021/09/15 08:09:53;;;;;;;7.37;5.00;;;20.60;99.90;;;;;;5001843;28;20187;-83
2021/09/15 08:12:18;;;;;;;5.43;4.67;;;20.70;99.90;;;;;;5003176;28;20250;-83
2021/09/15 08:14:44;;;;;;;7.63;5.23;;;21.10;99.90;;;;;;4999401;28;20194;-84
2021/09/15 08:17:09;;;;;;;7.53;4.67;;;21.60;99.90;;;;;;4998597;28;20278;-83
2021/09/15 08:19:35;;;;;;;8.70;4.73;;;21.70;99.90;;;;;;4999487;28;20179;-83
2021/09/15 08:22:01;;;;;;;8.67;5.10;;;22.20;99.90;;;;;;5003471;28;20192;-84
2021/09/15 08:24:27;;;;;;;11.87;5.10;;;22.60;99.90;;;;;;5000407;28;20315;-83
2021/09/15 08:26:53;;;;;;;8.17;5.00;;;22.90;99.90;;;;;;4999256;28;20202;-82
2021/09/15 08:29:18;;;;;;;7.40;5.47;;;23.00;99.90;;;;;;5000324;28;20653;-83
2021/09/15 08:31:44;;;;;;;8.60;5.40;;;22.70;99.90;;;;;;4998653;28;20204;-83
2021/09/15 08:34:09;;;;;;;6.20;4.87;;;22.40;99.90;;;;;;4999894;28;20183;-83
2021/09/15 08:36:35;;;;;;;8.47;5.20;;;22.10;99.90;;;;;;4999491;28;20230;-83
2021/09/15 08:39:02;;;;;;;6.50;5.50;;;21.80;99.90;;;;;;4999536;28;20176;-83
2021/09/15 08:41:27;;;;;;;5.63;5.03;;;21.60;99.90;;;;;;4998959;28;20720;-83
2021/09/15 08:43:53;;;;;;;13.70;5.43;;;21.50;99.90;;;;;;5002616;28;20171;-83
2021/09/15 08:46:21;;;;;;;6.77;5.50;;;21.40;99.90;;;;;;4999753;28;20175;-83
2021/09/15 08:48:47;;;;;;;8.63;5.27;;;21.30;99.90;;;;;;5001457;28;20519;-83
2021/09/15 08:51:16;;;;;;;9.23;5.03;;;21.30;99.90;;;;;;4999972;28;20199;-82
2021/09/15 08:53:43;;;;;;;9.30;5.50;;;21.40;99.90;;;;;;5000386;28;20183;-83
2021/09/15 08:56:09;;;;;;;9.20;5.30;;;21.40;99.90;;;;;;5003903;28;20172;-83
2021/09/15 08:58:35;;;;;;;11.30;6.03;;;21.40;99.90;;;;;;5004513;28;20603;-83
2021/09/15 09:01:08;;;;;;;8.87;6.20;;;21.40;99.90;;;;;;5004110;28;20270;-83
2021/09/15 09:03:36;;;;;;;8.70;5.20;;;21.50;99.90;;;;;;4999741;28;20180;-83
2021/09/15 09:06:13;;;;;;;7.10;5.13;;;21.60;99.90;;;;;;4997243;28;20176;-82
2021/09/15 09:08:41;;;;;;;5.97;5.07;;;21.80;99.90;;;;;;4997699;28;20210;-83
2021/09/15 09:11:08;;;;;;;7.00;5.80;;;21.90;99.90;;;;;;4998402;28;20203;-82
2021/09/15 09:13:44;;;;;;;7.27;5.27;;;22.00;99.90;;;;;;4996871;28;20188;-82
2021/09/15 09:16:10;;;;;;;6.93;4.63;;;21.90;99.90;;;;;;4998580;28;20156;-82
2021/09/15 09:19:02;;;;;;;8.70;6.10;;;21.80;99.90;;;;;;4999363;28;20195;-82
2021/09/15 09:21:32;;;;;;;8.93;5.33;;;21.60;99.90;;;;;;5008590;28;20263;-82
2021/09/15 09:24:03;;;;;;;6.67;5.93;;;21.60;99.90;;;;;;5018281;28;20171;-82
2021/09/15 09:26:47;;;;;;;9.53;5.80;;;21.60;99.90;;;;;;5020866;28;20219;-81
2021/09/15 09:29:22;;;;;;;8.93;6.00;;;21.70;99.90;;;;;;5009693;28;20183;-83
2021/09/15 09:32:13;;;;;;;8.57;5.70;;;21.90;99.90;;;;;;5003287;28;20322;-83
2021/09/15 09:34:47;;;;;;;8.97;6.00;;;22.20;99.90;;;;;;5005783;28;20275;-83
2021/09/15 09:37:16;;;;;;;7.60;6.00;;;22.60;99.90;;;;;;5005491;28;20208;-83
2021/09/15 09:39:45;;;;;;;6.97;6.17;;;23.00;99.90;;;;;;5005650;28;20701;-82
2021/09/15 09:42:40;;;;;;;7.83;5.53;;;23.00;99.90;;;;;;5004220;28;20224;-83
2021/09/15 09:45:05;;;;;;;6.63;5.10;;;23.00;99.90;;;;;;5004223;28;20192;-83
2021/09/15 09:47:33;;;;;;;9.53;5.97;;;23.20;99.90;;;;;;5007660;28;20187;-83
2021/09/15 09:50:00;;;;;;;7.77;5.30;;;23.50;99.90;;;;;;5003399;28;20639;-83
2021/09/15 09:52:26;;;;;;;6.13;4.83;;;23.80;99.90;;;;;;5002402;28;20208;-83
2021/09/15 09:55:04;;;;;;;6.10;5.23;;;24.40;99.90;;;;;;5002106;28;20530;-83
2021/09/15 09:57:30;;;;;;;6.50;4.57;;;25.00;99.90;;;;;;5002208;28;20273;-83
2021/09/15 09:59:57;;;;;;;8.17;4.90;;;25.10;99.90;;;;;;5002717;28;20192;-83
2021/09/15 10:02:23;;;;;;;5.27;4.77;;;25.00;99.90;;;;;;5003949;28;20641;-83
2021/09/15 10:04:49;;;;;;;6.30;4.70;;;24.50;99.90;;;;;;5002763;28;20180;-85
2021/09/15 10:07:15;;;;;;;6.07;4.53;;;24.00;99.90;;;;;;5003369;28;20215;-82
2021/09/15 10:09:44;;;;;;;6.10;4.93;;;23.70;99.90;;;;;;5004636;28;20177;-82
2021/09/15 10:12:11;;;;;;;5.90;5.00;;;23.30;99.90;;;;;;5005132;28;20211;-82
2021/09/15 10:14:38;;;;;;;8.47;5.80;;;23.10;99.90;;;;;;5004991;28;20188;-83
2021/09/15 10:17:12;;;;;;;7.13;5.73;;;23.00;99.90;;;;;;5004641;28;20207;-82
2021/09/15 10:19:41;;;;;;;6.83;5.13;;;23.00;99.90;;;;;;5002910;28;20729;-82
2021/09/15 10:22:07;;;;;;;5.73;5.13;;;22.90;99.90;;;;;;5004700;28;20192;-82
2021/09/15 10:24:54;;;;;;;6.13;5.27;;;22.70;99.90;;;;;;5005254;28;20180;-82
2021/09/15 10:27:22;;;;;;;7.03;5.17;;;22.50;99.90;;;;;;5006402;28;20174;-82
2021/09/15 10:30:06;;;;;;;9.17;5.33;;;22.40;99.90;;;;;;5004305;28;20181;-83
2021/09/15 10:32:35;;;;;;;15.47;6.13;;;22.40;99.90;;;;;;5002050;28;20281;-83
2021/09/15 10:35:02;;;;;;;6.47;5.40;;;22.40;99.90;;;;;;5005986;28;20207;-83
2021/09/15 10:37:31;;;;;;;8.27;5.53;;;22.40;99.90;;;;;;5004637;28;20213;-83
2021/09/15 10:40:02;;;;;;;7.43;6.00;;;22.50;99.90;;;;;;5005768;28;20207;-84
2021/09/15 10:42:34;;;;;;;6.77;5.60;;;22.60;99.90;;;;;;5006766;28;20200;-85
2021/09/15 10:45:09;;;;;;;5.63;4.80;;;22.70;99.90;;;;;;5006922;28;20181;-84
2021/09/15 10:47:43;;;;;;;7.10;5.17;;;22.70;99.90;;;;;;5003530;28;20183;-84
2021/09/15 10:50:11;;;;;;;7.40;5.57;;;22.90;99.90;;;;;;5005233;28;20228;-85
2021/09/15 10:52:39;;;;;;;6.63;5.50;;;23.00;99.90;;;;;;5003437;28;20228;-84
2021/09/15 10:55:21;;;;;;;8.37;5.47;;;23.20;99.90;;;;;;5002862;28;20187;-84
2021/09/15 10:57:48;;;;;;;7.67;5.47;;;23.30;99.90;;;;;;5002360;28;20662;-84
2021/09/15 11:00:17;;;;;;;8.00;5.50;;;23.20;99.90;;;;;;5003593;28;20186;-84
2021/09/15 11:02:45;;;;;;;8.67;5.23;;;23.10;99.90;;;;;;5001932;28;20189;-84
2021/09/15 11:05:26;;;;;;;6.20;5.30;;;23.00;99.90;;;;;;5001968;28;20221;-84
2021/09/15 11:07:55;;;;;;;8.37;5.93;;;22.80;99.90;;;;;;5002618;28;20188;-84
2021/09/15 11:12:59;;;;;;;6.73;5.87;;;22.30;99.90;;;;;;5004076;28;20184;-84
2021/09/15 11:15:33;;;;;;;7.50;6.80;;;22.30;99.90;;;;;;5004134;28;20230;-84
2021/09/15 11:17:59;;;;;;;8.00;7.20;;;22.10;99.90;;;;;;5003010;28;20661;-84
2021/09/15 11:20:28;;;;;;;9.67;7.60;;;22.00;99.90;;;;;;5003899;28;20190;-84
2021/09/15 11:22:55;;;;;;;8.43;7.27;;;22.00;99.90;;;;;;5001718;28;20175;-84
2021/09/15 11:25:23;;;;;;;9.07;7.60;;;22.10;99.90;;;;;;5001185;28;20183;-84
2021/09/15 11:28:12;;;;;;;10.60;6.73;;;22.20;99.90;;;;;;5000107;28;20179;-83
2021/09/15 11:30:41;;;;;;;9.80;7.77;;;22.20;99.90;;;;;;4999680;28;20255;-84
2021/09/15 11:33:08;;;;;;;8.50;6.50;;;22.40;99.90;;;;;;4998208;28;20188;-83
2021/09/15 11:35:40;;;;;;;8.13;6.37;;;22.50;99.90;;;;;;5001355;28;20656;-83
2021/09/15 11:38:07;;;;;;;8.17;6.73;;;22.60;99.90;;;;;;5011237;28;20196;-83
2021/09/15 11:40:35;;;;;;;9.73;5.70;;;22.90;99.90;;;;;;5019549;28;20188;-82
2021/09/15 11:43:06;;;;;;;7.50;5.80;;;22.90;99.90;;;;;;5012359;28;20228;-84
2021/09/15 11:45:33;;;;;;;8.40;5.97;;;23.00;99.90;;;;;;5003032;28;20245;-83
2021/09/15 11:47:59;;;;;;;6.70;6.00;;;23.20;99.90;;;;;;5004842;28;20598;-84
2021/09/15 11:50:30;;;;;;;7.30;5.93;;;23.40;99.90;;;;;;4999912;28;20185;-83
2021/09/15 11:53:03;;;;;;;6.93;6.10;;;23.40;99.90;;;;;;4999842;28;20172;-84
2021/09/15 11:55:30;;;;;;;12.70;6.80;;;23.50;99.90;;;;;;5001133;28;20183;-83
2021/09/15 11:58:01;;;;;;;12.50;6.40;;;23.50;99.90;;;;;;5001505;28;20196;-84
2021/09/15 12:00:30;;;;;;;8.10;6.47;;;23.50;99.90;;;;;;5000658;28;20189;-83
2021/09/15 12:02:59;;;;;;;8.50;6.47;;;23.50;99.90;;;;;;5002028;28;20375;-84
2021/09/15 12:05:25;;;;;;;9.53;6.60;;;23.90;99.90;;;;;;5002326;28;20642;-83
2021/09/15 12:07:52;;;;;;;7.73;6.43;;;24.20;99.90;;;;;;5002389;28;20203;-84
2021/09/15 12:10:19;;;;;;;12.10;6.33;;;24.50;99.90;;;;;;5003356;28;20180;-84
2021/09/15 12:12:45;;;;;;;9.23;6.50;;;25.20;99.90;;;;;;5003444;28;20274;-85
2021/09/15 12:15:10;;;;;;;9.93;6.27;;;25.90;99.90;;;;;;5003240;28;20214;-82
2021/09/15 12:17:37;;;;;;;7.40;6.17;;;26.10;99.90;;;;;;4999814;28;20209;-82
2021/09/15 12:20:04;;;;;;;8.67;6.17;;;26.00;99.90;;;;;;5000142;28;20193;-83
2021/09/15 12:22:33;;;;;;;7.73;5.80;;;25.80;99.90;;;;;;5000792;28;20201;-83
2021/09/15 12:25:09;;;;;;;7.67;6.00;;;25.60;99.90;;;;;;5003204;28;20187;-82
2021/09/15 12:27:36;;;;;;;11.10;5.87;;;25.10;99.90;;;;;;5005261;28;20245;-82
2021/09/15 12:30:13;;;;;;;12.33;6.47;;;24.70;99.90;;;;;;5000896;28;20264;-82
2021/09/15 12:32:41;;;;;;;10.50;6.10;;;24.40;99.90;;;;;;4999820;28;20214;-82
2021/09/15 12:35:21;;;;;;;8.57;6.40;;;24.10;99.90;;;;;;5000647;28;20197;-82
2021/09/15 12:37:47;;;;;;;11.07;6.30;;;23.90;99.90;;;;;;5001547;28;20651;-82
2021/09/15 12:40:20;;;;;;;10.23;6.30;;;23.90;99.90;;;;;;5001151;28;20188;-82
2021/09/15 12:43:00;;;;;;;7.87;6.80;;;24.10;99.90;;;;;;5001554;28;20202;-82
2021/09/15 12:45:27;;;;;;;10.97;7.10;;;24.20;99.90;;;;;;4999635;28;20708;-82
2021/09/15 12:47:54;;;;;;;10.63;6.70;;;24.50;99.90;;;;;;5000508;28;20218;-82
2021/09/15 12:50:32;;;;;;;13.00;7.07;;;26.00;99.90;;;;;;5001508;28;20189;-82
2021/09/15 12:53:12;;;;;;;10.97;6.33;;;26.20;99.90;;;;;;5000625;28;20183;-82
2021/09/15 12:55:46;;;;;;;9.47;6.07;;;27.30;99.90;;;;;;5002482;28;20187;-83
2021/09/15 12:58:23;;;;;;;13.20;6.27;;;27.20;99.90;;;;;;5009130;28;20670;-83
2021/09/15 13:00:48;;;;;;;16.87;6.60;;;27.10;99.90;;;;;;5002806;28;20245;-83